Time;durP1;ratioP1;P1;durP2;ratioP2;P2;SDS_P1;SDS_P2;PMS_P1;PMS_P2;Temp;Humidity;BMP_temperature;BMP_pressure;BME280_temperature;BME280_humidity;BME280_pressure;Samples;Min_cycle;Max_cycle;Signal;HPM_P1;HPM_P2
2022/07/10 00:00:45;;;;;;;4.95;2.83;;;17.80;99.90;;;;;;5053853;28;20072;-73
2022/07/10 00:03:12;;;;;;;5.40;2.88;;;17.80;99.90;;;;;;5052508;28;20040;-73
2022/07/10 00:05:39;;;;;;;5.43;2.88;;;17.70;99.90;;;;;;5052123;28;20045;-73
2022/07/10 00:08:06;;;;;;;7.00;2.83;;;17.70;99.90;;;;;;5052277;28;20098;-73
2022/07/10 00:10:33;;;;;;;4.57;2.97;;;17.60;99.90;;;;;;5053740;28;20045;-73
2022/07/10 00:13:00;;;;;;;3.42;2.72;;;17.60;99.90;;;;;;5051753;28;20492;-73
2022/07/10 00:15:33;;;;;;;3.83;2.60;;;17.60;99.90;;;;;;5052945;28;20049;-73
2022/07/10 00:18:00;;;;;;;3.83;2.35;;;17.50;99.90;;;;;;5052957;28;20052;-73
2022/07/10 00:20:27;;;;;;;4.97;2.72;;;17.50;99.90;;;;;;5052094;28;20052;-73
2022/07/10 00:22:54;;;;;;;5.15;2.42;;;17.40;99.90;;;;;;5053762;28;20128;-73
2022/07/10 00:25:27;;;;;;;4.60;3.10;;;17.40;99.90;;;;;;5052854;28;20314;-73
2022/07/10 00:27:53;;;;;;;4.30;2.85;;;17.30;99.90;;;;;;5053149;28;20041;-73
2022/07/10 00:30:20;;;;;;;4.50;3.20;;;17.20;99.90;;;;;;5051480;28;20045;-72
2022/07/10 00:32:47;;;;;;;4.82;3.03;;;17.20;99.90;;;;;;5052420;28;20049;-73
2022/07/10 00:35:14;;;;;;;6.75;2.95;;;17.10;99.90;;;;;;5053781;28;20045;-72
2022/07/10 00:37:41;;;;;;;6.60;3.40;;;17.10;99.90;;;;;;5056724;28;20040;-73
2022/07/10 00:40:08;;;;;;;4.78;3.17;;;17.10;99.90;;;;;;5056404;28;20103;-72
2022/07/10 00:42:35;;;;;;;4.47;2.85;;;17.10;99.90;;;;;;5055815;28;20162;-73
2022/07/10 00:45:02;;;;;;;4.20;2.40;;;17.00;99.90;;;;;;5056484;28;20048;-73
2022/07/10 00:47:29;;;;;;;4.22;2.70;;;17.00;99.90;;;;;;5039168;28;20048;-73
2022/07/10 00:49:56;;;;;;;5.97;3.13;;;16.90;99.90;;;;;;5055155;28;20091;-72
2022/07/10 00:52:23;;;;;;;3.70;2.80;;;16.90;99.90;;;;;;5055511;28;20044;-73
2022/07/10 00:54:53;;;;;;;6.95;2.97;;;16.90;99.90;;;;;;5055856;28;20037;-73
2022/07/10 00:57:20;;;;;;;5.00;3.00;;;16.90;99.90;;;;;;5055153;28;20041;-73
2022/07/10 00:59:47;;;;;;;3.80;2.85;;;16.90;99.90;;;;;;5055222;28;20065;-73
2022/07/10 01:02:14;;;;;;;4.57;2.63;;;16.80;99.90;;;;;;5055041;28;20132;-73
2022/07/10 01:04:41;;;;;;;5.32;2.97;;;16.80;99.90;;;;;;5038761;28;20045;-74
2022/07/10 01:07:08;;;;;;;4.07;2.40;;;16.80;99.90;;;;;;5055948;28;20048;-73
2022/07/10 01:09:35;;;;;;;5.75;2.80;;;16.80;99.90;;;;;;5054967;28;20041;-73
2022/07/10 01:12:02;;;;;;;3.53;2.55;;;16.70;99.90;;;;;;5055732;28;20044;-73
2022/07/10 01:14:30;;;;;;;3.60;2.40;;;16.70;99.90;;;;;;5038800;28;20051;-73
2022/07/10 01:17:00;;;;;;;5.47;2.60;;;16.70;99.90;;;;;;5038860;28;20048;-73
2022/07/10 01:19:26;;;;;;;5.22;3.13;;;16.70;99.90;;;;;;5055450;28;20469;-73
2022/07/10 01:21:53;;;;;;;5.93;2.38;;;16.60;99.90;;;;;;5055224;28;20045;-73
2022/07/10 01:24:20;;;;;;;3.40;2.55;;;16.60;99.90;;;;;;5056447;28;20124;-73
2022/07/10 01:26:47;;;;;;;6.60;2.80;;;16.60;99.90;;;;;;5056752;28;20048;-72
2022/07/10 01:29:14;;;;;;;4.55;2.83;;;16.60;99.90;;;;;;5054749;28;20037;-73
2022/07/10 01:31:41;;;;;;;5.15;2.95;;;16.60;99.90;;;;;;5054588;28;20048;-73
2022/07/10 01:34:11;;;;;;;3.92;2.83;;;16.50;99.90;;;;;;5055387;28;20044;-73
2022/07/10 01:36:38;;;;;;;5.72;2.92;;;16.50;99.90;;;;;;5056887;28;20112;-73
2022/07/10 01:39:06;;;;;;;5.18;2.72;;;16.50;99.90;;;;;;5055467;28;20056;-73
2022/07/10 01:41:33;;;;;;;3.58;2.60;;;16.40;99.90;;;;;;5055712;28;20049;-73
2022/07/10 01:44:00;;;;;;;4.00;2.58;;;16.40;99.90;;;;;;5054374;28;20049;-72
2022/07/10 01:46:28;;;;;;;4.72;2.97;;;16.30;99.90;;;;;;5054046;28;20049;-72
2022/07/10 01:48:55;;;;;;;5.43;2.63;;;16.30;99.90;;;;;;5053602;28;20037;-73
2022/07/10 01:51:22;;;;;;;5.97;3.20;;;16.30;99.90;;;;;;5055233;28;20117;-72
2022/07/10 01:53:49;;;;;;;4.72;2.63;;;16.20;99.90;;;;;;5054070;28;20523;-72
2022/07/10 01:56:16;;;;;;;3.65;2.50;;;16.20;99.90;;;;;;5055334;28;20051;-72
2022/07/10 01:58:43;;;;;;;7.05;3.13;;;16.10;99.90;;;;;;5055352;28;20040;-72
2022/07/10 02:01:10;;;;;;;4.43;2.72;;;16.10;99.90;;;;;;5055268;28;20052;-72
2022/07/10 02:06:23;;;;;;;5.22;2.85;;;16.00;99.90;;;;;;5056313;28;20041;-72
2022/07/10 02:08:50;;;;;;;6.85;2.88;;;16.00;99.90;;;;;;5054200;28;20053;-73
2022/07/10 02:11:16;;;;;;;3.60;2.95;;;15.90;99.90;;;;;;5056434;28;20041;-73
2022/07/10 02:13:43;;;;;;;5.00;3.20;;;15.90;99.90;;;;;;5054892;28;20051;-72
2022/07/10 02:16:10;;;;;;;6.18;3.08;;;15.90;99.90;;;;;;5054822;28;20049;-73
2022/07/10 02:18:38;;;;;;;4.30;3.10;;;15.90;99.90;;;;;;5054174;28;20492;-73
2022/07/10 02:21:06;;;;;;;6.43;2.80;;;15.90;99.90;;;;;;5055533;28;20384;-73
2022/07/10 02:23:35;;;;;;;4.43;3.10;;;15.80;99.90;;;;;;5038024;28;20045;-73
2022/07/10 02:26:02;;;;;;;4.82;3.47;;;15.80;99.90;;;;;;5053467;28;20049;-72
2022/07/10 02:28:29;;;;;;;5.72;2.88;;;15.70;99.90;;;;;;5037245;28;20495;-73
2022/07/10 02:30:56;;;;;;;6.47;3.20;;;15.70;99.90;;;;;;5054830;28;20079;-72
2022/07/10 02:33:23;;;;;;;5.95;2.80;;;15.70;99.90;;;;;;5054103;28;20044;-72
2022/07/10 02:35:50;;;;;;;4.72;2.80;;;15.70;99.90;;;;;;5054988;28;20507;-73
2022/07/10 02:38:17;;;;;;;4.95;2.85;;;15.60;99.90;;;;;;5054529;28;20047;-73
2022/07/10 02:40:43;;;;;;;5.53;3.90;;;15.60;99.90;;;;;;5053305;28;20095;-73
2022/07/10 02:43:11;;;;;;;4.72;3.05;;;15.60;99.90;;;;;;5055401;28;20106;-73
2022/07/10 02:45:38;;;;;;;5.25;2.90;;;15.60;99.90;;;;;;5053794;28;20049;-73
2022/07/10 02:48:12;;;;;;;3.88;2.97;;;15.60;99.90;;;;;;5054746;28;20049;-73
2022/07/10 02:50:39;;;;;;;6.85;3.97;;;15.60;99.90;;;;;;5054568;28;20045;-73
2022/07/10 02:53:06;;;;;;;4.78;3.42;;;15.50;99.90;;;;;;5054812;28;20052;-73
2022/07/10 02:55:33;;;;;;;4.68;3.40;;;15.50;99.90;;;;;;5053636;28;20106;-72
2022/07/10 02:58:00;;;;;;;5.28;2.95;;;15.50;99.90;;;;;;5054266;28;20045;-72
2022/07/10 03:00:27;;;;;;;5.07;3.72;;;15.50;99.90;;;;;;5055608;28;20048;-73
2022/07/10 03:02:54;;;;;;;5.00;3.03;;;15.40;99.90;;;;;;5054887;28;20384;-73
2022/07/10 03:05:21;;;;;;;3.53;2.83;;;15.40;99.90;;;;;;5056267;28;20053;-73
2022/07/10 03:07:48;;;;;;;5.22;3.00;;;15.40;99.90;;;;;;5055485;28;20040;-73
2022/07/10 03:10:15;;;;;;;4.50;3.38;;;15.30;99.90;;;;;;5055911;28;20078;-73
2022/07/10 03:12:42;;;;;;;3.78;3.00;;;15.30;99.90;;;;;;5058138;28;20445;-73
2022/07/10 03:15:09;;;;;;;4.80;3.10;;;15.30;99.90;;;;;;5075949;28;20096;-73
2022/07/10 03:17:36;;;;;;;5.72;3.20;;;15.30;99.90;;;;;;5076606;28;20045;-72
2022/07/10 03:20:04;;;;;;;5.20;3.13;;;15.20;99.90;;;;;;5075724;28;20045;-73
2022/07/10 03:22:32;;;;;;;4.53;3.25;;;15.20;99.90;;;;;;5062217;28;20045;-73
2022/07/10 03:24:59;;;;;;;4.25;3.00;;;15.20;99.90;;;;;;5052586;28;20045;-73
2022/07/10 03:27:26;;;;;;;4.57;3.05;;;15.20;99.90;;;;;;5054771;28;20059;-72
2022/07/10 03:29:53;;;;;;;4.25;3.17;;;15.20;99.90;;;;;;5052548;28;20048;-73
2022/07/10 03:32:20;;;;;;;6.22;3.22;;;15.20;99.90;;;;;;5058662;28;20140;-73
2022/07/10 03:34:47;;;;;;;4.45;3.20;;;15.10;99.90;;;;;;5053517;28;20040;-73
2022/07/10 03:37:14;;;;;;;3.80;3.13;;;15.10;99.90;;;;;;5052313;28;20124;-74
2022/07/10 03:39:41;;;;;;;5.78;2.92;;;15.10;99.90;;;;;;5052295;28;20041;-73
2022/07/10 03:42:09;;;;;;;5.28;3.67;;;15.10;99.90;;;;;;5053335;28;20045;-74
2022/07/10 03:44:36;;;;;;;5.00;2.72;;;15.00;99.90;;;;;;5053588;28;20045;-73
2022/07/10 03:47:03;;;;;;;5.80;3.03;;;15.00;99.90;;;;;;5052202;28;20052;-73
2022/07/10 03:49:30;;;;;;;4.30;2.95;;;15.00;99.90;;;;;;5053937;28;20491;-73
2022/07/10 03:52:01;;;;;;;3.70;2.55;;;15.00;99.90;;;;;;5054000;28;20045;-73
2022/07/10 03:54:28;;;;;;;3.55;2.35;;;15.00;99.90;;;;;;5053034;28;20041;-73
2022/07/10 03:59:41;;;;;;;14.32;12.57;;;14.90;99.90;;;;;;5052268;28;20431;-64
2022/07/10 04:02:08;;;;;;;14.80;11.45;;;14.90;99.90;;;;;;5053117;28;20408;-74
2022/07/10 04:04:35;;;;;;;4.70;3.97;;;14.90;99.90;;;;;;5051990;28;20047;-73
2022/07/10 04:07:04;;;;;;;4.90;3.95;;;14.80;99.90;;;;;;5052316;28;20041;-71
2022/07/10 04:09:31;;;;;;;4.85;3.28;;;14.80;99.90;;;;;;5053056;28;20480;-73
2022/07/10 04:11:58;;;;;;;5.72;2.92;;;14.80;99.90;;;;;;5056649;28;20095;-74
2022/07/10 04:14:25;;;;;;;3.63;2.88;;;14.80;99.90;;;;;;5057449;28;20045;-74
2022/07/10 04:16:51;;;;;;;3.90;2.75;;;14.80;99.90;;;;;;5057195;28;20045;-73
2022/07/10 04:19:18;;;;;;;4.82;2.65;;;14.70;99.90;;;;;;5057171;28;20049;-73
2022/07/10 04:21:45;;;;;;;4.97;2.67;;;14.70;99.90;;;;;;5057049;28;20507;-74
2022/07/10 04:24:12;;;;;;;4.70;3.00;;;14.70;99.90;;;;;;5057430;28;20041;-74
2022/07/10 04:26:39;;;;;;;4.28;2.50;;;14.70;99.90;;;;;;5056041;28;20492;-74
2022/07/10 04:29:06;;;;;;;3.53;2.42;;;14.70;99.90;;;;;;5057738;28;20041;-74
2022/07/10 04:31:33;;;;;;;3.03;2.38;;;14.70;99.90;;;;;;5055177;28;20052;-73
2022/07/10 04:34:00;;;;;;;4.30;2.78;;;14.70;99.90;;;;;;5056438;28;20099;-74
2022/07/10 04:36:27;;;;;;;4.13;2.88;;;14.70;99.90;;;;;;5057083;28;20037;-74
2022/07/10 04:38:54;;;;;;;3.58;2.33;;;14.80;99.90;;;;;;5056680;28;20040;-74
2022/07/10 04:41:21;;;;;;;3.30;2.20;;;14.80;99.90;;;;;;5056265;28;20091;-73
2022/07/10 04:43:48;;;;;;;5.07;2.30;;;14.80;99.90;;;;;;5055368;28;20049;-73
2022/07/10 04:46:15;;;;;;;5.40;3.00;;;14.80;99.90;;;;;;5057015;28;20488;-73
2022/07/10 04:48:42;;;;;;;6.25;2.50;;;14.90;99.90;;;;;;5056874;28;20045;-73
2022/07/10 04:51:08;;;;;;;5.70;2.47;;;15.30;99.90;;;;;;5055997;28;20045;-73
2022/07/10 04:53:35;;;;;;;5.45;2.97;;;15.80;99.90;;;;;;5057440;28;20055;-73
2022/07/10 04:56:02;;;;;;;4.57;2.58;;;16.30;99.90;;;;;;5055431;28;20056;-73
2022/07/10 04:58:29;;;;;;;6.10;2.50;;;17.00;99.90;;;;;;5057095;28;20041;-73
2022/07/10 05:00:56;;;;;;;5.18;2.50;;;17.50;99.90;;;;;;5055224;28;20447;-72
2022/07/10 05:03:23;;;;;;;4.80;2.30;;;18.00;99.90;;;;;;5055004;28;20476;-73
2022/07/10 05:05:50;;;;;;;4.55;2.35;;;18.60;99.90;;;;;;5056939;28;20077;-73
2022/07/10 05:08:17;;;;;;;5.05;2.40;;;19.10;99.90;;;;;;5056517;28;20045;-72
2022/07/10 05:10:44;;;;;;;4.30;2.85;;;19.70;99.90;;;;;;5054759;28;20037;-73
2022/07/10 05:13:12;;;;;;;3.90;1.98;;;20.30;99.90;;;;;;5056768;28;20123;-74
2022/07/10 05:15:39;;;;;;;4.57;2.60;;;20.80;99.90;;;;;;5055074;28;20041;-73
2022/07/10 05:18:06;;;;;;;3.63;1.90;;;21.20;99.90;;;;;;5054745;28;20041;-74
2022/07/10 05:20:35;;;;;;;3.85;1.90;;;21.70;99.90;;;;;;5054582;28;20495;-74
2022/07/10 05:23:02;;;;;;;2.85;1.73;;;22.10;99.90;;;;;;5054649;28;20465;-74
2022/07/10 05:25:30;;;;;;;2.92;1.50;;;22.40;99.90;;;;;;5055770;28;20045;-74
2022/07/10 05:27:57;;;;;;;3.20;1.88;;;22.80;99.90;;;;;;5055775;28;20076;-73
2022/07/10 05:30:24;;;;;;;3.03;1.50;;;23.10;99.90;;;;;;5056574;28;20041;-73
2022/07/10 05:32:51;;;;;;;4.57;1.45;;;23.40;98.00;;;;;;5056514;28;20048;-73
2022/07/10 05:35:18;;;;;;;3.60;1.60;;;23.50;97.60;;;;;;5055685;28;20049;-73
2022/07/10 05:37:45;;;;;;;2.97;1.55;;;23.70;96.30;;;;;;5055905;28;20044;-73
2022/07/10 05:40:12;;;;;;;2.83;1.83;;;23.80;93.90;;;;;;5054774;28;20041;-73
2022/07/10 05:42:39;;;;;;;3.22;1.45;;;23.90;93.70;;;;;;5054339;28;20498;-73
2022/07/10 05:45:07;;;;;;;2.53;1.40;;;23.90;92.60;;;;;;5056562;28;20041;-72
2022/07/10 05:47:34;;;;;;;2.58;1.50;;;23.90;92.20;;;;;;5054148;28;20045;-72
2022/07/10 05:50:00;;;;;;;3.83;1.48;;;23.90;91.40;;;;;;5054393;28;20413;-72
2022/07/10 05:52:27;;;;;;;3.38;1.55;;;23.70;91.60;;;;;;5038157;28;20045;-72
2022/07/10 05:54:56;;;;;;;3.95;2.20;;;23.40;90.60;;;;;;5054820;28;20045;-73
2022/07/10 05:57:24;;;;;;;4.20;1.73;;;23.20;91.20;;;;;;5054572;28;20045;-73
2022/07/10 05:59:51;;;;;;;3.67;1.35;;;22.90;91.60;;;;;;5054274;28;20071;-73
2022/07/10 06:02:18;;;;;;;4.65;2.30;;;22.80;92.40;;;;;;5056356;28;20048;-73
2022/07/10 06:04:50;;;;;;;2.92;1.55;;;22.80;92.90;;;;;;5056350;28;20041;-73
2022/07/10 06:07:21;;;;;;;2.17;1.27;;;22.70;92.90;;;;;;5054315;28;20075;-73
2022/07/10 06:09:48;;;;;;;1.92;1.38;;;22.60;92.80;;;;;;5055300;28;20492;-72
2022/07/10 06:12:17;;;;;;;3.78;1.60;;;22.50;92.70;;;;;;5056068;28;20044;-73
2022/07/10 06:14:44;;;;;;;2.78;1.20;;;22.40;92.90;;;;;;5038491;28;20052;-74
2022/07/10 06:17:11;;;;;;;4.90;1.77;;;22.20;93.60;;;;;;5053698;28;20044;-73
2022/07/10 06:19:38;;;;;;;3.22;1.35;;;22.10;93.40;;;;;;5053747;28;20048;-74
2022/07/10 06:24:50;;;;;;;2.45;1.45;;;22.00;94.50;;;;;;5055848;28;20140;-73
2022/07/10 06:27:17;;;;;;;3.00;1.55;;;21.90;95.40;;;;;;5055630;28;20045;-73
2022/07/10 06:29:45;;;;;;;2.40;1.30;;;21.70;95.40;;;;;;5055722;28;20049;-73
2022/07/10 06:32:12;;;;;;;2.53;1.50;;;21.80;96.20;;;;;;5055190;28;20052;-73
2022/07/10 06:34:40;;;;;;;6.22;2.50;;;21.70;96.80;;;;;;5053587;28;20049;-73
2022/07/10 06:37:06;;;;;;;4.40;1.15;;;21.70;96.60;;;;;;5054093;28;20049;-73
2022/07/10 06:39:34;;;;;;;3.33;1.80;;;21.80;96.70;;;;;;5054420;28;20476;-73
2022/07/10 06:42:07;;;;;;;3.25;1.40;;;21.90;96.70;;;;;;5053165;28;20053;-73
2022/07/10 06:44:34;;;;;;;2.38;1.42;;;21.90;96.30;;;;;;5053501;28;20128;-73
2022/07/10 06:49:47;;;;;;;5.07;1.50;;;21.90;96.40;;;;;;5054516;28;20499;-73
2022/07/10 06:52:15;;;;;;;2.45;1.08;;;21.70;96.60;;;;;;5054097;28;20048;-73
2022/07/10 06:54:42;;;;;;;4.45;1.50;;;21.70;97.20;;;;;;5052926;28;20045;-73
2022/07/10 06:57:09;;;;;;;3.83;1.60;;;21.70;97.20;;;;;;5054381;28;20051;-73
2022/07/10 06:59:36;;;;;;;2.95;1.27;;;21.60;97.20;;;;;;5037351;28;20044;-73
2022/07/10 07:02:03;;;;;;;2.58;1.50;;;21.70;97.70;;;;;;5053514;28;20144;-73
2022/07/10 07:04:30;;;;;;;4.15;1.25;;;21.90;97.50;;;;;;5052721;28;20056;-73
2022/07/10 07:06:57;;;;;;;4.13;1.20;;;21.90;97.30;;;;;;5053499;28;20037;-72
2022/07/10 07:09:24;;;;;;;2.38;1.50;;;21.90;97.30;;;;;;5053731;28;20045;-73
2022/07/10 07:11:51;;;;;;;18.88;16.98;;;21.90;96.60;;;;;;5053976;28;20052;-66
2022/07/10 07:14:18;;;;;;;13.95;12.48;;;22.00;97.10;;;;;;5054732;28;20071;-76
2022/07/10 07:16:46;;;;;;;2.90;2.13;;;22.00;96.60;;;;;;5053989;28;20380;-75
2022/07/10 07:19:17;;;;;;;3.83;1.55;;;21.90;96.60;;;;;;5052536;28;20037;-75
2022/07/10 07:24:29;;;;;;;3.47;1.30;;;21.80;97.10;;;;;;5054141;28;20037;-76
2022/07/10 07:26:56;;;;;;;6.22;2.00;;;21.80;97.70;;;;;;5036003;28;20045;-75
2022/07/10 07:29:23;;;;;;;3.92;1.70;;;21.80;97.90;;;;;;5054630;28;20036;-76
2022/07/10 07:31:50;;;;;;;5.22;1.77;;;21.90;98.90;;;;;;5053297;28;20053;-75
2022/07/10 07:34:17;;;;;;;2.30;1.17;;;21.80;98.50;;;;;;5053123;28;20045;-76
2022/07/10 07:36:44;;;;;;;4.15;1.92;;;21.80;99.10;;;;;;5053605;28;20507;-76
2022/07/10 07:39:11;;;;;;;2.67;1.70;;;21.90;99.20;;;;;;5054469;28;20049;-76
2022/07/10 07:41:37;;;;;;;3.30;1.70;;;21.90;98.70;;;;;;5054431;28;20055;-74
2022/07/10 07:44:04;;;;;;;22.25;19.75;;;22.00;98.60;;;;;;5052000;28;20048;-73
2022/07/10 07:46:34;;;;;;;7.68;4.35;;;21.90;98.60;;;;;;5052514;28;20142;-73
2022/07/10 07:49:01;;;;;;;4.13;3.00;;;21.90;98.70;;;;;;5052048;28;20048;-73
2022/07/10 07:51:28;;;;;;;3.75;2.15;;;21.90;99.70;;;;;;5054011;28;20397;-74
2022/07/10 07:53:55;;;;;;;3.85;1.50;;;22.00;99.30;;;;;;5053225;28;20477;-74
2022/07/10 07:56:23;;;;;;;3.10;1.63;;;22.00;99.00;;;;;;5053063;28;20053;-73
2022/07/10 07:58:50;;;;;;;3.08;1.50;;;22.00;98.90;;;;;;5052033;28;20044;-72
2022/07/10 08:01:19;;;;;;;2.53;1.73;;;22.10;98.70;;;;;;5053218;28;20071;-74
2022/07/10 08:03:46;;;;;;;3.40;2.05;;;22.00;98.80;;;;;;5053820;28;20368;-74
2022/07/10 08:06:33;;;;;;;3.13;1.60;;;22.00;99.00;;;;;;5053999;28;20139;-74
2022/07/10 08:09:00;;;;;;;3.05;1.73;;;22.10;99.10;;;;;;5051723;28;20037;-68
2022/07/10 08:11:27;;;;;;;2.55;1.70;;;22.20;99.00;;;;;;5052011;28;20392;-68
2022/07/10 08:13:53;;;;;;;2.95;1.40;;;22.30;99.60;;;;;;5036313;28;20049;-76
2022/07/10 08:16:20;;;;;;;2.60;1.50;;;22.30;99.10;;;;;;5035904;28;20056;-75
2022/07/10 08:18:47;;;;;;;6.30;1.80;;;22.30;98.50;;;;;;5053706;28;20037;-76
2022/07/10 08:21:14;;;;;;;3.40;2.13;;;22.40;99.60;;;;;;5053260;28;20041;-76
2022/07/10 08:23:41;;;;;;;4.55;1.80;;;22.50;99.70;;;;;;5054993;28;20067;-76
2022/07/10 08:26:08;;;;;;;5.05;1.60;;;22.70;99.60;;;;;;5056877;28;20048;-78
2022/07/10 08:28:35;;;;;;;3.58;1.50;;;22.70;98.60;;;;;;5051695;28;20045;-72
2022/07/10 08:31:03;;;;;;;3.58;1.73;;;22.80;98.60;;;;;;5052926;28;20102;-74
2022/07/10 08:33:30;;;;;;;2.55;1.25;;;22.80;98.20;;;;;;5052859;28;20504;-73
2022/07/10 08:36:00;;;;;;;3.35;1.58;;;22.70;98.40;;;;;;5051978;28;20045;-69
2022/07/10 08:38:46;;;;;;;45.72;40.15;;;22.70;98.40;;;;;;5053192;28;20056;-65
2022/07/10 08:41:17;;;;;;;13.77;12.40;;;22.70;97.70;;;;;;5051673;28;20048;-67
2022/07/10 08:43:44;;;;;;;4.90;3.85;;;22.70;98.90;;;;;;5053560;28;20041;-67
2022/07/10 08:46:11;;;;;;;4.55;2.20;;;22.80;98.00;;;;;;5051716;28;20037;-66
2022/07/10 08:48:38;;;;;;;2.83;1.50;;;22.80;97.70;;;;;;5051614;28;20045;-68
2022/07/10 08:51:07;;;;;;;2.97;1.58;;;22.80;98.00;;;;;;5052185;28;20073;-68
2022/07/10 08:53:34;;;;;;;2.85;1.40;;;22.70;97.10;;;;;;5051749;28;20067;-68
2022/07/10 08:56:01;;;;;;;3.97;2.10;;;22.70;97.80;;;;;;5052269;28;20381;-68
2022/07/10 08:58:28;;;;;;;2.90;1.80;;;22.70;97.90;;;;;;5055385;28;20041;-68
2022/07/10 09:00:55;;;;;;;3.20;1.55;;;22.70;97.70;;;;;;5056276;28;20048;-68
2022/07/10 09:03:22;;;;;;;4.57;1.80;;;22.80;97.40;;;;;;5056597;28;20053;-69
2022/07/10 09:05:51;;;;;;;1.98;1.35;;;22.80;97.70;;;;;;5056600;28;20045;-69
2022/07/10 09:08:26;;;;;;;2.55;1.67;;;22.90;97.60;;;;;;5054950;28;20556;-68
2022/07/10 09:11:14;;;;;;;2.67;1.80;;;23.00;97.90;;;;;;5056028;28;20465;-72
2022/07/10 09:13:51;;;;;;;3.25;1.83;;;22.90;96.50;;;;;;5055448;28;20450;-67
2022/07/10 09:16:27;;;;;;;3.72;1.58;;;22.80;96.60;;;;;;5055881;28;20055;-70
2022/07/10 09:18:54;;;;;;;2.70;1.90;;;22.80;97.20;;;;;;5056187;28;20081;-71
2022/07/10 09:21:21;;;;;;;3.03;1.90;;;22.80;97.70;;;;;;5055960;28;20041;-71
2022/07/10 09:23:55;;;;;;;5.97;2.92;;;22.80;97.30;;;;;;5055918;28;20045;-71
2022/07/10 09:26:22;;;;;;;4.78;2.08;;;22.80;97.60;;;;;;5054699;28;20056;-71
2022/07/10 09:28:53;;;;;;;2.50;1.60;;;22.80;98.00;;;;;;5056137;28;20041;-71
2022/07/10 09:31:20;;;;;;;3.67;1.70;;;22.80;97.70;;;;;;5054918;28;20040;-70
2022/07/10 09:33:47;;;;;;;4.38;2.13;;;22.80;97.60;;;;;;5054555;28;20052;-70
2022/07/10 09:36:14;;;;;;;3.35;1.85;;;22.90;97.80;;;;;;5054779;28;20057;-71
2022/07/10 09:38:44;;;;;;;2.38;1.65;;;22.90;97.50;;;;;;5054568;28;20425;-71
2022/07/10 09:41:26;;;;;;;3.28;1.73;;;22.90;97.20;;;;;;5055918;28;20060;-71
2022/07/10 09:43:55;;;;;;;3.83;2.05;;;22.90;97.30;;;;;;5054857;28;20053;-70
2022/07/10 09:46:24;;;;;;;21.55;19.50;;;22.90;97.40;;;;;;5055940;28;20043;-69
2022/07/10 09:49:10;;;;;;;17.05;14.15;;;22.90;97.70;;;;;;5055432;28;20052;-71
2022/07/10 09:51:42;;;;;;;4.05;2.90;;;23.00;96.90;;;;;;5053868;28;20392;-72
2022/07/10 09:54:15;;;;;;;3.35;2.13;;;22.90;97.50;;;;;;5054135;28;20044;-72
2022/07/10 09:56:51;;;;;;;3.35;2.17;;;22.90;97.30;;;;;;5055573;28;20045;-73
2022/07/10 09:59:19;;;;;;;5.43;1.75;;;22.90;97.50;;;;;;5055530;28;20110;-72
2022/07/10 10:01:47;;;;;;;2.22;1.70;;;23.00;97.50;;;;;;5054044;28;20044;-73
2022/07/10 10:04:16;;;;;;;34.28;29.80;;;23.10;97.90;;;;;;5055377;28;20048;-68
2022/07/10 10:06:43;;;;;;;15.60;11.73;;;23.20;98.10;;;;;;5055118;28;20056;-69
2022/07/10 10:09:25;;;;;;;8.85;7.97;;;23.30;98.00;;;;;;5052942;28;20045;-65
2022/07/10 10:11:58;;;;;;;10.52;4.68;;;23.30;97.60;;;;;;5055919;28;20048;-66
2022/07/10 10:14:27;;;;;;;4.90;2.67;;;23.40;97.10;;;;;;5054337;28;20404;-66
2022/07/10 10:16:55;;;;;;;3.30;2.08;;;23.40;96.40;;;;;;5056035;28;20041;-67
2022/07/10 10:22:09;;;;;;;3.70;2.00;;;23.50;95.50;;;;;;5055740;28;20045;-72
2022/07/10 10:24:41;;;;;;;2.60;2.10;;;23.30;95.40;;;;;;5054452;28;20465;-72
2022/07/10 10:27:08;;;;;;;3.05;2.00;;;23.40;95.30;;;;;;5053908;28;20072;-72
2022/07/10 10:29:36;;;;;;;3.70;2.25;;;23.40;94.90;;;;;;5055082;28;20472;-72
2022/07/10 10:32:04;;;;;;;4.57;1.70;;;23.40;94.80;;;;;;5053448;28;20060;-71
2022/07/10 10:34:42;;;;;;;2.78;1.80;;;23.50;94.90;;;;;;5054627;28;20087;-72
2022/07/10 10:37:40;;;;;;;3.65;1.80;;;23.60;94.60;;;;;;5054810;28;20055;-71
2022/07/10 10:40:09;;;;;;;3.47;2.20;;;23.80;94.50;;;;;;5055659;28;20040;-72
2022/07/10 10:42:39;;;;;;;3.28;2.33;;;23.90;93.40;;;;;;5053233;28;20040;-72
2022/07/10 10:45:27;;;;;;;3.42;2.08;;;23.90;92.60;;;;;;5055256;28;20041;-72
2022/07/10 10:48:03;;;;;;;6.45;4.45;;;24.10;93.40;;;;;;5037064;28;20473;-64
2022/07/10 10:50:51;;;;;;;6.75;2.97;;;24.20;94.10;;;;;;5053375;28;20143;-70
2022/07/10 10:53:27;;;;;;;5.78;3.05;;;24.30;92.50;;;;;;5036611;28;20056;-66
2022/07/10 10:56:03;;;;;;;8.85;3.35;;;24.40;93.10;;;;;;5053086;28;20037;-64
2022/07/10 10:58:44;;;;;;;3.15;1.77;;;24.50;91.90;;;;;;5054298;28;20041;-64
2022/07/10 11:01:21;;;;;;;3.45;1.75;;;24.50;90.00;;;;;;5054068;28;20099;-68
2022/07/10 11:04:20;;;;;;;4.07;1.85;;;24.50;90.10;;;;;;5054191;28;20041;-66
2022/07/10 11:06:52;;;;;;;2.85;2.03;;;24.70;91.10;;;;;;5044659;28;20128;-68
2022/07/10 11:09:25;;;;;;;7.93;5.20;;;24.90;90.50;;;;;;5053634;28;20045;-68
2022/07/10 11:12:08;;;;;;;5.53;3.50;;;25.10;90.20;;;;;;5053123;28;20041;-65
2022/07/10 11:14:37;;;;;;;4.45;2.22;;;25.20;88.00;;;;;;5052838;28;20055;-68
2022/07/10 11:17:06;;;;;;;323.20;38.88;;;25.40;86.40;;;;;;5052571;28;20511;-63
2022/07/10 11:19:34;;;;;;;18.98;4.53;;;25.50;86.20;;;;;;5053766;28;20041;-66
2022/07/10 11:22:10;;;;;;;5.85;2.88;;;25.50;84.10;;;;;;5037227;28;20094;-66
2022/07/10 11:24:51;;;;;;;4.35;2.03;;;25.50;83.40;;;;;;5054263;28;20044;-68
2022/07/10 11:27:35;;;;;;;4.20;2.30;;;25.40;86.00;;;;;;5035912;28;20045;-65
2022/07/10 11:30:03;;;;;;;4.90;2.00;;;25.40;85.70;;;;;;5052835;28;20060;-65
2022/07/10 11:32:30;;;;;;;2.92;1.88;;;25.50;83.80;;;;;;5053582;28;20055;-64
2022/07/10 11:34:57;;;;;;;3.72;1.80;;;25.60;84.30;;;;;;5053852;28;20045;-64
2022/07/10 11:37:28;;;;;;;3.63;1.75;;;25.80;84.10;;;;;;5052518;28;20049;-65
2022/07/10 11:40:08;;;;;;;2.40;1.70;;;26.00;82.20;;;;;;5054260;28;20128;-65
2022/07/10 11:42:54;;;;;;;4.32;2.50;;;26.30;81.80;;;;;;5052171;28;20045;-67
2022/07/10 11:45:29;;;;;;;4.57;2.00;;;26.40;82.40;;;;;;5053690;28;20045;-67
2022/07/10 11:47:57;;;;;;;21.58;19.33;;;26.40;81.10;;;;;;5053231;28;20127;-61
2022/07/10 11:50:24;;;;;;;12.60;11.43;;;26.40;79.80;;;;;;5052902;28;20047;-68
2022/07/10 11:52:51;;;;;;;4.45;2.97;;;26.30;80.90;;;;;;5051930;28;20464;-64
2022/07/10 11:55:19;;;;;;;4.38;3.15;;;26.20;80.30;;;;;;5035943;28;20365;-65
2022/07/10 11:57:49;;;;;;;2.65;1.90;;;26.30;79.30;;;;;;5053066;28;20041;-66
2022/07/10 12:00:23;;;;;;;3.92;2.10;;;26.20;78.20;;;;;;5053375;28;20408;-65
2022/07/10 12:02:51;;;;;;;2.75;1.80;;;26.40;79.70;;;;;;5053350;28;20060;-64
2022/07/10 12:05:34;;;;;;;2.97;1.77;;;26.60;80.30;;;;;;5052042;28;20484;-64
2022/07/10 12:08:01;;;;;;;3.78;1.80;;;26.90;78.80;;;;;;5053317;28;20052;-64
2022/07/10 12:10:30;;;;;;;4.60;3.17;;;26.90;76.60;;;;;;5052144;28;20385;-64
2022/07/10 12:13:11;;;;;;;5.60;4.47;;;26.80;74.70;;;;;;5051724;28;20290;-64
2022/07/10 12:15:42;;;;;;;3.03;2.08;;;26.70;73.10;;;;;;5052046;28;20370;-65
2022/07/10 12:18:17;;;;;;;2.80;1.80;;;26.70;72.50;;;;;;5052003;28;20041;-67
2022/07/10 12:20:47;;;;;;;2.92;1.50;;;26.70;73.10;;;;;;5035294;28;20049;-65
2022/07/10 12:23:17;;;;;;;3.53;1.77;;;26.80;72.30;;;;;;5053658;28;20056;-66
2022/07/10 12:25:45;;;;;;;4.45;2.10;;;26.80;72.70;;;;;;5051629;28;20052;-66
2022/07/10 12:28:13;;;;;;;3.17;1.75;;;26.90;73.70;;;;;;5052874;28;20045;-65
2022/07/10 12:30:44;;;;;;;5.38;2.20;;;26.80;72.20;;;;;;5035506;28;20052;-66
2022/07/10 12:33:16;;;;;;;1.95;1.70;;;26.80;71.80;;;;;;5056575;28;20049;-65
2022/07/10 12:35:49;;;;;;;24.02;7.22;;;26.70;72.70;;;;;;5055665;28;20127;-67
2022/07/10 12:38:26;;;;;;;6.07;2.17;;;26.60;70.60;;;;;;5057475;28;20072;-67
2022/07/10 12:41:12;;;;;;;4.38;1.77;;;26.70;69.20;;;;;;5058156;28;20037;-64
2022/07/10 12:43:39;;;;;;;4.07;2.88;;;26.80;71.70;;;;;;5056498;28;20045;-66
2022/07/10 12:46:16;;;;;;;7.57;6.85;;;26.80;70.30;;;;;;5055314;28;20044;-66
2022/07/10 12:48:45;;;;;;;3.30;2.92;;;26.90;68.80;;;;;;5055228;28;20088;-66
2022/07/10 12:51:45;;;;;;;8.82;7.97;;;26.90;69.70;;;;;;5056023;28;20373;-66
2022/07/10 12:54:38;;;;;;;13.80;12.43;;;27.00;69.20;;;;;;5050143;28;20056;-65
2022/07/10 12:57:05;;;;;;;4.10;3.70;;;27.10;69.70;;;;;;5056239;28;20449;-66
2022/07/10 12:59:36;;;;;;;4.57;3.72;;;27.20;69.70;;;;;;5056398;28;20124;-66
2022/07/10 13:02:19;;;;;;;3.85;2.60;;;27.30;70.40;;;;;;5039435;28;20048;-66
2022/07/10 13:04:53;;;;;;;3.05;2.03;;;27.30;69.10;;;;;;5056168;28;20037;-66
2022/07/10 13:07:28;;;;;;;3.17;1.80;;;27.40;70.10;;;;;;5038478;28;20418;-68
2022/07/10 13:09:55;;;;;;;2.83;2.00;;;27.50;70.00;;;;;;5057049;28;20045;-66
2022/07/10 13:12:29;;;;;;;3.40;2.08;;;27.60;69.80;;;;;;5055707;28;20441;-67